Time;durP1;ratioP1;P1;durP2;ratioP2;P2;SDS_P1;SDS_P2;PMS_P1;PMS_P2;Temp;Humidity;BMP_temperature;BMP_pressure;BME280_temperature;BME280_humidity;BME280_pressure;Samples;Min_cycle;Max_cycle;Signal;HPM_P1;HPM_P2
2022/01/25 00:28:39;;;;;;;;;;;-1.80;99.90;;;;;;4982163;28;20034;-75
2022/01/25 00:31:17;;;;;;;;;;;-1.80;99.90;;;;;;4983742;28;19922;-75
2022/01/25 00:33:52;;;;;;;;;;;-1.80;99.90;;;;;;4995934;28;19921;-76
2022/01/25 00:36:21;;;;;;;;;;;-1.70;99.90;;;;;;4980316;28;19921;-76
2022/01/25 00:38:48;;;;;;;;;;;-1.70;99.90;;;;;;4982980;28;20014;-76
2022/01/25 00:41:15;;;;;;;;;;;-1.80;99.90;;;;;;4979909;28;20012;-76
2022/01/25 00:43:43;;;;;;;;;;;-1.80;99.90;;;;;;4976227;28;20088;-75
2022/01/25 00:46:11;;;;;;;;;;;-1.80;99.90;;;;;;4980995;28;19921;-76
2022/01/25 00:51:22;;;;;;;;;;;-1.80;99.90;;;;;;4973955;28;19930;-76
2022/01/25 00:54:10;;;;;;;;;;;-1.80;99.90;;;;;;4976476;28;19944;-76
2022/01/25 00:56:38;;;;;;;;;;;-1.80;99.90;;;;;;4986326;28;19930;-76
2022/01/25 00:59:08;;;;;;;;;;;-1.80;99.90;;;;;;4990102;28;19928;-76
2022/01/25 01:01:36;;;;;;;;;;;-1.70;99.90;;;;;;4980424;28;19922;-76
2022/01/25 01:04:04;;;;;;;;;;;-1.60;99.90;;;;;;4983588;28;20312;-76
2022/01/25 01:06:33;;;;;;;;;;;-1.60;99.90;;;;;;4983351;28;19922;-75
2022/01/25 01:09:00;;;;;;;;;;;-1.60;99.90;;;;;;4971690;28;19929;-75
2022/01/25 01:11:34;;;;;;;;;;;-1.70;99.90;;;;;;4976226;28;19926;-76
2022/01/25 01:30:36;;;;;;;;;;;-1.90;99.90;;;;;;4988292;28;19929;-76
2022/01/25 01:34:05;;;;;;;;;;;-2.00;99.90;;;;;;4970747;28;19976;-76
2022/01/25 01:43:38;;;;;;;;;;;-2.10;99.90;;;;;;4980695;28;19930;-76
2022/01/25 01:51:28;;;;;;;;;;;-2.10;99.90;;;;;;4985475;28;19936;-76
2022/01/25 01:53:56;;;;;;;;;;;-2.20;99.90;;;;;;4981988;28;19953;-76
2022/01/25 01:56:23;;;;;;;;;;;-2.20;99.90;;;;;;4970859;28;19930;-76
2022/01/25 01:58:51;;;;;;;;;;;-2.30;99.90;;;;;;4986827;28;20324;-76
2022/01/25 02:01:19;;;;;;;;;;;-2.30;99.90;;;;;;4975713;28;19944;-76
2022/01/25 02:03:46;;;;;;;;;;;-2.30;99.90;;;;;;4980235;28;20326;-75
2022/01/25 02:06:12;;;;;;;;;;;-2.30;99.90;;;;;;5014965;28;19922;-76
2022/01/25 02:08:39;;;;;;;;;;;-2.30;99.90;;;;;;4996637;28;20380;-76
2022/01/25 02:11:06;;;;;;;;;;;-2.30;99.90;;;;;;4979986;28;19922;-76
2022/01/25 02:13:33;;;;;;;;;;;-2.30;99.90;;;;;;4985421;28;20145;-76
2022/01/25 02:16:04;;;;;;;;;;;-2.20;99.90;;;;;;4986623;28;19928;-76
2022/01/25 02:24:01;;;;;;;;;;;-2.00;99.90;;;;;;4978804;28;19951;-76
2022/01/25 02:26:30;;;;;;;;;;;-1.90;99.90;;;;;;4982123;28;19922;-76
2022/01/25 02:28:57;;;;;;;;;;;-1.90;99.90;;;;;;4983566;28;19936;-76
2022/01/25 02:31:24;;;;;;;;;;;-2.00;99.90;;;;;;4981663;28;19975;-77
2022/01/25 02:33:51;;;;;;;;;;;-2.00;99.90;;;;;;4983250;28;20427;-76
2022/01/25 02:36:25;;;;;;;;;;;-2.00;99.90;;;;;;4986597;28;19932;-76
2022/01/25 02:38:52;;;;;;;;;;;-2.00;99.90;;;;;;4982288;28;19921;-76
2022/01/25 02:41:19;;;;;;;;;;;-2.00;99.90;;;;;;4978367;28;19945;-76
2022/01/25 02:43:47;;;;;;;;;;;-1.90;99.90;;;;;;4983866;28;19926;-76
2022/01/25 02:48:49;;;;;;;;;;;-1.90;99.90;;;;;;4996599;28;20418;-76
2022/01/25 02:51:16;;;;;;;;;;;-2.00;99.90;;;;;;4976717;28;19944;-75
2022/01/25 02:53:43;;;;;;;;;;;-2.00;99.90;;;;;;4979672;28;20437;-76
2022/01/25 02:56:15;;;;;;;;;;;-2.10;99.90;;;;;;4979233;28;20013;-76
2022/01/25 02:58:42;;;;;;;;;;;-2.10;99.90;;;;;;4982464;28;20240;-76
2022/01/25 03:01:09;;;;;;;;;;;-2.10;99.90;;;;;;4989479;28;19948;-76
2022/01/25 03:03:37;;;;;;;;;;;-2.20;99.90;;;;;;4993464;28;20363;-76
2022/01/25 03:06:04;;;;;;;;;;;-2.20;99.90;;;;;;4985172;28;19928;-76
2022/01/25 03:08:31;;;;;;;;;;;-2.20;99.90;;;;;;4982270;28;19929;-76
2022/01/25 03:10:58;;;;;;;;;;;-2.20;99.90;;;;;;4985458;28;19940;-76
2022/01/25 03:13:32;;;;;;;;;;;-2.10;99.90;;;;;;4981224;28;19922;-76
2022/01/25 03:16:06;;;;;;;;;;;-2.20;99.90;;;;;;4983556;28;20513;-76
2022/01/25 03:21:22;;;;;;;;;;;-2.30;99.90;;;;;;4982962;28;20579;-76
2022/01/25 03:23:51;;;;;;;;;;;-2.30;99.90;;;;;;4984217;28;19929;-76
2022/01/25 03:26:18;;;;;;;;;;;-2.40;99.90;;;;;;4983584;28;19925;-76
2022/01/25 03:28:45;;;;;;;;;;;-2.40;99.90;;;;;;4982320;28;19922;-76
2022/01/25 03:31:11;;;;;;;;;;;-2.30;99.90;;;;;;4983582;28;20428;-76
2022/01/25 03:33:38;;;;;;;;;;;-2.30;99.90;;;;;;4980038;28;19928;-76
2022/01/25 03:36:07;;;;;;;;;;;-2.30;99.90;;;;;;4975450;28;20081;-76
2022/01/25 03:38:35;;;;;;;;;;;-2.40;99.90;;;;;;4979555;28;19922;-76
2022/01/25 03:41:03;;;;;;;;;;;-2.40;99.90;;;;;;4979372;28;19921;-76
2022/01/25 03:43:30;;;;;;;;;;;-2.50;99.90;;;;;;4978837;28;19930;-76
2022/01/25 03:46:05;;;;;;;;;;;-2.50;99.90;;;;;;4980317;28;19926;-76
2022/01/25 03:50:59;;;;;;;;;;;-2.50;99.90;;;;;;4976787;28;19922;-77
2022/01/25 03:53:26;;;;;;;;;;;-2.50;99.90;;;;;;4986296;28;20219;-77
2022/01/25 03:55:54;;;;;;;;;;;-2.60;99.90;;;;;;4990625;28;19922;-77
2022/01/25 03:58:28;;;;;;;;;;;-2.60;99.90;;;;;;4980376;28;20403;-77
2022/01/25 04:00:54;;;;;;;;;;;-2.70;99.90;;;;;;4986398;28;19921;-76
2022/01/25 04:03:32;;;;;;;;;;;-2.80;99.90;;;;;;4975420;28;19990;-77
2022/01/25 04:05:59;;;;;;;;;;;-2.80;99.90;;;;;;4973138;28;19928;-77
2022/01/25 04:08:26;;;;;;;;;;;-2.90;99.90;;;;;;4981155;28;19922;-76
2022/01/25 04:10:52;;;;;;;;;;;-2.90;99.90;;;;;;4988116;28;19975;-76
2022/01/25 04:13:19;;;;;;;;;;;-3.00;99.90;;;;;;4976921;28;19922;-76
2022/01/25 04:15:47;;;;;;;;;;;-3.10;99.90;;;;;;4989604;28;20324;-76
2022/01/25 04:18:33;;;;;;;;;;;-3.30;99.90;;;;;;4982427;28;19929;-76
2022/01/25 04:21:24;;;;;;;;;;;-3.40;99.90;;;;;;4976510;28;20069;-77
2022/01/25 04:26:36;;;;;;;;;;;-3.60;99.90;;;;;;4978353;28;19926;-77
2022/01/25 04:29:03;;;;;;;;;;;-3.70;99.90;;;;;;4984309;28;19921;-77
2022/01/25 04:31:30;;;;;;;;;;;-3.80;99.90;;;;;;4985399;28;19932;-76
2022/01/25 04:34:47;;;;;;;;;;;-3.90;99.90;;;;;;4984347;28;19932;-77
2022/01/25 04:50:27;;;;;;;;;;;-4.20;99.90;;;;;;4994640;28;20364;-77
2022/01/25 04:53:05;;;;;;;;;;;-4.30;99.90;;;;;;4975883;28;20360;-77
2022/01/25 04:55:43;;;;;;;;;;;-4.40;99.90;;;;;;4983790;28;19922;-77
2022/01/25 04:58:17;;;;;;;;;;;-4.50;99.90;;;;;;4982665;28;19922;-77
2022/01/25 05:00:46;;;;;;;;;;;-4.40;99.90;;;;;;5000246;28;19929;-79
2022/01/25 05:03:19;;;;;;;;;;;-4.30;99.90;;;;;;5011834;28;19949;-78
2022/01/25 05:06:09;;;;;;;;;;;-4.30;99.90;;;;;;4986798;28;19932;-77
2022/01/25 05:08:44;;;;;;;;;;;-4.20;99.90;;;;;;4978277;28;19930;-77
2022/01/25 05:11:34;;;;;;;;;;;-4.30;99.90;;;;;;4983733;28;19925;-77
2022/01/25 05:17:19;;;;;;;;;;;-4.40;99.90;;;;;;4975411;28;19929;-76
2022/01/25 05:22:03;;;;;;;;;;;-4.50;99.90;;;;;;4974850;28;19921;-77
2022/01/25 05:22:23;;;;;;;;;;;-4.50;99.90;;;;;;4982063;28;20307;-80
2022/01/25 05:24:50;;;;;;;;;;;-4.50;99.90;;;;;;4980837;28;20399;-77
2022/01/25 05:27:18;;;;;;;;;;;-4.40;99.90;;;;;;4976126;28;19948;-79
2022/01/25 05:29:44;;;;;;;;;;;-4.50;99.90;;;;;;4979967;28;19922;-77
2022/01/25 05:32:11;;;;;;;;;;;-4.50;99.90;;;;;;4972254;28;21742;-77
2022/01/25 05:34:41;;;;;;;;;;;-4.60;99.90;;;;;;4991149;28;20028;-77
2022/01/25 05:37:08;;;;;;;;;;;-4.70;99.90;;;;;;4977193;28;19941;-78
2022/01/25 05:39:37;;;;;;;;;;;-4.70;99.90;;;;;;4992262;28;19926;-77
2022/01/25 05:42:28;;;;;;;;;;;-4.80;99.90;;;;;;4981719;28;19922;-77
2022/01/25 05:44:59;;;;;;;;;;;-4.80;99.90;;;;;;5006290;28;20018;-77
2022/01/25 05:47:32;;;;;;;;;;;-4.80;99.90;;;;;;4981246;28;20012;-77
2022/01/25 05:49:59;;;;;;;;;;;-4.80;99.90;;;;;;4975726;28;20036;-77
2022/01/25 05:52:26;;;;;;;;;;;-4.70;99.90;;;;;;4983137;28;20007;-77
2022/01/25 05:54:56;;;;;;;;;;;-4.70;99.90;;;;;;4982078;28;19922;-77
2022/01/25 05:57:23;;;;;;;;;;;-4.70;99.90;;;;;;4985583;28;20021;-77
2022/01/25 05:59:53;;;;;;;;;;;-4.80;99.90;;;;;;4990744;28;19922;-77
2022/01/25 06:02:22;;;;;;;;;;;-4.80;99.90;;;;;;4974229;28;19950;-77
2022/01/25 06:04:50;;;;;;;;;;;-4.80;99.90;;;;;;4977807;28;19928;-77
2022/01/25 06:07:17;;;;;;;;;;;-4.80;99.90;;;;;;4999213;28;19929;-77
2022/01/25 06:09:43;;;;;;;;;;;-4.90;99.90;;;;;;4979129;28;19930;-77
2022/01/25 06:12:10;;;;;;;;;;;-4.90;99.90;;;;;;4979739;28;19941;-77
2022/01/25 06:14:37;;;;;;;;;;;-4.80;99.90;;;;;;4982371;28;19930;-78
2022/01/25 06:17:04;;;;;;;;;;;-4.80;99.90;;;;;;4931429;28;20599;-76
2022/01/25 06:19:33;;;;;;;;;;;-4.80;99.90;;;;;;4979223;28;19929;-77
2022/01/25 06:22:00;;;;;;;;;;;-4.80;99.90;;;;;;4982158;28;20103;-77
2022/01/25 06:24:30;;;;;;;;;;;-4.80;99.90;;;;;;4978313;28;20009;-77
2022/01/25 06:26:57;;;;;;;;;;;-4.90;99.90;;;;;;4981267;28;19944;-78
2022/01/25 06:29:23;;;;;;;;;;;-5.00;99.90;;;;;;4984166;28;20470;-78
2022/01/25 06:31:50;;;;;;;;;;;-4.90;99.90;;;;;;4985098;28;19922;-78
2022/01/25 06:34:17;;;;;;;;;;;-4.90;99.90;;;;;;4974127;28;19929;-78
2022/01/25 06:36:46;;;;;;;;;;;-4.90;99.90;;;;;;4981533;28;19925;-78
2022/01/25 06:39:13;;;;;;;;;;;-5.00;99.90;;;;;;4984716;28;20633;-78
2022/01/25 06:41:47;;;;;;;;;;;-5.00;99.90;;;;;;4978295;28;19975;-79
2022/01/25 06:44:14;;;;;;;;;;;-5.10;99.90;;;;;;4982464;28;19925;-78
2022/01/25 06:46:40;;;;;;;;;;;-5.10;99.90;;;;;;4990266;28;19943;-78
2022/01/25 06:49:15;;;;;;;;;;;-5.10;99.90;;;;;;4980793;28;19968;-78
2022/01/25 06:51:41;;;;;;;;;;;-5.00;99.90;;;;;;4989495;28;20460;-78
2022/01/25 06:54:08;;;;;;;;;;;-4.90;99.90;;;;;;4985952;28;20364;-78
2022/01/25 06:56:35;;;;;;;;;;;-4.70;99.90;;;;;;4973399;28;20012;-78
2022/01/25 06:59:05;;;;;;;;;;;-4.60;99.90;;;;;;4981887;28;19930;-78
2022/01/25 07:01:32;;;;;;;;;;;-4.40;99.90;;;;;;4975079;28;20164;-78
2022/01/25 07:03:58;;;;;;;;;;;-4.40;99.90;;;;;;4985224;28;19922;-78
2022/01/25 07:06:25;;;;;;;;;;;-4.40;99.90;;;;;;4951320;28;19949;-77
2022/01/25 07:08:52;;;;;;;;;;;-4.50;99.90;;;;;;4980832;28;19930;-78
2022/01/25 07:11:22;;;;;;;;;;;-4.50;99.90;;;;;;4979141;28;19921;-78
2022/01/25 07:13:48;;;;;;;;;;;-4.50;99.90;;;;;;4982158;28;19930;-78
2022/01/25 07:16:15;;;;;;;;;;;-4.40;99.90;;;;;;4958364;28;19933;-78
2022/01/25 07:18:42;;;;;;;;;;;-4.40;99.90;;;;;;4966498;28;20012;-78
2022/01/25 07:21:09;;;;;;;;;;;-4.50;99.90;;;;;;4967899;28;20184;-78
2022/01/25 07:23:35;;;;;;;;;;;-4.50;99.90;;;;;;4968105;28;19968;-78
2022/01/25 07:26:02;;;;;;;;;;;-4.60;99.90;;;;;;4973923;28;20294;-78
2022/01/25 07:28:29;;;;;;;;;;;-4.60;99.90;;;;;;4972698;28;19926;-78
2022/01/25 07:30:55;;;;;;;;;;;-4.50;99.90;;;;;;4969760;28;20738;-78
2022/01/25 07:33:27;;;;;;;;;;;-4.40;99.90;;;;;;4979801;28;19925;-78
2022/01/25 07:35:57;;;;;;;;;;;-4.20;99.90;;;;;;4968100;28;20624;-78
2022/01/25 07:38:27;;;;;;;;;;;-4.20;99.90;;;;;;4966427;28;19960;-78
2022/01/25 07:40:53;;;;;;;;;;;-4.10;99.90;;;;;;4974310;28;19957;-78
2022/01/25 07:43:20;;;;;;;;;;;-4.10;99.90;;;;;;4969022;28;19926;-78
2022/01/25 07:45:58;;;;;;;;;;;-4.00;99.90;;;;;;4968177;28;19926;-78
2022/01/25 07:48:25;;;;;;;;;;;-3.80;99.90;;;;;;4998258;28;19926;-78
2022/01/25 07:51:01;;;;;;;;;;;-3.60;99.90;;;;;;4973391;28;19973;-78
2022/01/25 07:53:28;;;;;;;;;;;-3.50;99.90;;;;;;4974570;28;19930;-76
2022/01/25 07:55:54;;;;;;;;;;;-3.20;99.90;;;;;;4974159;28;20000;-75
2022/01/25 07:58:21;;;;;;;;;;;-3.00;99.90;;;;;;4961995;28;19927;-76
2022/01/25 08:00:48;;;;;;;;;;;-2.90;99.90;;;;;;4974378;28;19930;-76
2022/01/25 08:03:16;;;;;;;;;;;-2.70;99.90;;;;;;4970661;28;19926;-76
2022/01/25 08:05:57;;;;;;;;;;;-2.50;99.90;;;;;;4983041;28;19926;-76
2022/01/25 08:08:39;;;;;;;;;;;-2.40;99.90;;;;;;4936941;28;19929;-76
2022/01/25 08:11:19;;;;;;;;;;;-2.20;99.90;;;;;;4971457;28;20458;-77
2022/01/25 08:14:11;;;;;;;;;;;-2.10;99.90;;;;;;4969518;28;19926;-77
2022/01/25 08:16:43;;;;;;;;;;;-1.90;99.90;;;;;;4971850;28;20243;-77
2022/01/25 08:19:24;;;;;;;;;;;-1.90;99.90;;;;;;4967438;28;19929;-77
2022/01/25 08:22:07;;;;;;;;;;;-2.20;99.90;;;;;;4968054;28;20411;-77
2022/01/25 08:24:51;;;;;;;;;;;-2.50;99.90;;;;;;4976597;28;20388;-76
2022/01/25 08:27:38;;;;;;;;;;;-2.60;99.90;;;;;;4958774;28;19936;-76
2022/01/25 08:30:19;;;;;;;;;;;-2.60;99.90;;;;;;4975849;28;20000;-76
2022/01/25 08:32:59;;;;;;;;;;;-2.60;99.90;;;;;;4969199;28;19925;-76
2022/01/25 08:35:47;;;;;;;;;;;-2.60;99.90;;;;;;4972188;28;19930;-76
2022/01/25 08:38:35;;;;;;;;;;;-2.70;99.90;;;;;;4969401;28;20215;-76
2022/01/25 08:41:06;;;;;;;;;;;-2.80;99.90;;;;;;4969246;28;20162;-76
2022/01/25 08:43:38;;;;;;;;;;;-2.70;99.90;;;;;;4973458;28;20270;-76
2022/01/25 08:46:07;;;;;;;;;;;-2.70;99.90;;;;;;4965673;28;19944;-76
2022/01/25 08:48:53;;;;;;;;;;;-2.70;99.90;;;;;;4908975;28;20029;-76
2022/01/25 08:51:38;;;;;;;;;;;-2.40;99.90;;;;;;4897089;28;20537;-77
2022/01/25 08:54:18;;;;;;;;;;;-2.30;99.90;;;;;;4914464;28;19927;-76
2022/01/25 08:56:53;;;;;;;;;;;-2.20;99.90;;;;;;4908595;28;19931;-77
2022/01/25 08:59:40;;;;;;;;;;;-2.10;99.90;;;;;;4920315;28;19933;-77
2022/01/25 09:02:07;;;;;;;;;;;-1.80;99.90;;;;;;4917102;28;19931;-77
2022/01/25 09:04:34;;;;;;;;;;;-1.50;99.90;;;;;;4910441;28;19978;-77
2022/01/25 09:07:00;;;;;;;;;;;-1.50;99.90;;;;;;4910849;28;20092;-77
2022/01/25 09:09:28;;;;;;;;;;;-1.40;99.90;;;;;;4922067;28;19973;-77
2022/01/25 09:11:56;;;;;;;;;;;-1.40;99.90;;;;;;4920136;29;19957;-77
2022/01/25 09:14:23;;;;;;;;;;;-1.30;99.90;;;;;;4924852;28;19937;-77
2022/01/25 09:16:50;;;;;;;;;;;-1.30;99.90;;;;;;4920477;28;20093;-77
2022/01/25 09:19:17;;;;;;;;;;;-1.30;99.90;;;;;;4922715;28;19954;-77
2022/01/25 09:21:44;;;;;;;;;;;-1.30;99.90;;;;;;4921362;29;20025;-77
2022/01/25 09:24:10;;;;;;;;;;;-1.00;99.90;;;;;;4921463;28;19935;-77
2022/01/25 09:26:37;;;;;;;;;;;-0.90;99.90;;;;;;4960658;28;19985;-77
2022/01/25 09:29:04;;;;;;;;;;;-0.70;99.90;;;;;;4977084;28;19956;-77
2022/01/25 09:31:31;;;;;;;;;;;-0.70;99.90;;;;;;4987121;28;19926;-77
2022/01/25 09:33:58;;;;;;;;;;;-0.60;99.90;;;;;;4979964;28;20119;-79
2022/01/25 09:36:25;;;;;;;;;;;-0.70;99.90;;;;;;4976451;28;19970;-76
2022/01/25 09:38:53;;;;;;;;;;;-0.80;99.90;;;;;;4971411;28;19933;-77
2022/01/25 09:41:20;;;;;;;;;;;-0.80;99.90;;;;;;4971456;28;19930;-78
2022/01/25 09:43:50;;;;;;;;;;;-0.90;99.90;;;;;;4976477;28;19926;-78
2022/01/25 09:46:17;;;;;;;;;;;-0.90;99.90;;;;;;4982431;28;20339;-78
2022/01/25 09:48:44;;;;;;;;;;;-0.80;99.90;;;;;;4943700;28;19938;-78
2022/01/25 09:51:11;;;;;;;;;;;-0.80;99.90;;;;;;4978961;28;19930;-78
2022/01/25 09:53:38;;;;;;;;;;;-0.80;99.90;;;;;;4976631;28;19934;-78
2022/01/25 09:56:05;;;;;;;;;;;-0.80;99.90;;;;;;4996687;28;20534;-78
2022/01/25 09:58:31;;;;;;;;;;;-0.80;99.90;;;;;;4972903;28;19926;-78
2022/01/25 10:00:59;;;;;;;;;;;-0.80;99.90;;;;;;4976934;28;19981;-78
2022/01/25 10:03:48;;;;;;;;;;;-0.80;99.90;;;;;;4995956;28;20372;-78
2022/01/25 10:06:16;;;;;;;;;;;-0.80;99.90;;;;;;4971472;28;20017;-78
2022/01/25 10:08:44;;;;;;;;;;;-1.00;99.90;;;;;;4975811;28;19930;-79
2022/01/25 10:11:12;;;;;;;;;;;-1.00;99.90;;;;;;4979638;28;19932;-79
2022/01/25 10:13:40;;;;;;;;;;;-1.00;99.90;;;;;;4974131;28;20327;-79
2022/01/25 10:16:07;;;;;;;;;;;-1.00;99.90;;;;;;4945530;28;19937;-79
2022/01/25 10:18:56;;;;;;;;;;;-1.00;99.90;;;;;;4975327;28;19926;-79
2022/01/25 10:21:28;;;;;;;;;;;-1.00;99.90;;;;;;4979184;28;19926;-77
2022/01/25 10:24:15;;;;;;;;;;;-1.00;99.90;;;;;;4975646;28;19926;-78
2022/01/25 10:26:58;;;;;;;;;;;-0.90;99.90;;;;;;4974921;28;19965;-77
2022/01/25 10:29:26;;;;;;;;;;;-0.80;99.90;;;;;;4982929;28;20399;-78
2022/01/25 10:31:57;;;;;;;;;;;-0.80;99.90;;;;;;4978555;28;19933;-78
2022/01/25 10:34:28;;;;;;;;;;;-0.60;99.90;;;;;;4987124;28;20365;-78
2022/01/25 10:36:56;;;;;;;;;;;-0.60;99.90;;;;;;4978529;28;20381;-78
2022/01/25 10:39:26;;;;;;;;;;;-0.40;99.90;;;;;;4982039;28;20024;-78
2022/01/25 10:42:03;;;;;;;;;;;-0.20;99.90;;;;;;4969335;28;20300;-78
2022/01/25 10:44:49;;;;;;;;;;;-0.10;99.90;;;;;;4981893;28;19931;-78
2022/01/25 10:47:16;;;;;;;;;;;0.10;99.90;;;;;;4973960;28;20032;-78
2022/01/25 10:49:46;;;;;;;;;;;0.20;99.90;;;;;;4978421;28;20016;-79
2022/01/25 10:52:13;;;;;;;;;;;0.20;99.90;;;;;;4974866;28;19930;-79
2022/01/25 10:54:41;;;;;;;;;;;0.20;99.90;;;;;;4967952;28;19932;-79
2022/01/25 10:57:28;;;;;;;;;;;0.40;99.90;;;;;;4977349;28;19934;-79
2022/01/25 11:00:17;;;;;;;;;;;0.50;99.90;;;;;;4980665;28;19929;-78
2022/01/25 11:02:51;;;;;;;;;;;0.70;99.90;;;;;;4975015;28;20085;-79
2022/01/25 11:05:19;;;;;;;;;;;0.80;99.90;;;;;;4980317;28;19937;-78
2022/01/25 11:07:46;;;;;;;;;;;1.00;99.90;;;;;;4984823;28;20364;-78
2022/01/25 11:10:14;;;;;;;;;;;0.90;99.90;;;;;;4986718;28;19971;-78
2022/01/25 11:12:48;;;;;;;;;;;1.00;99.90;;;;;;4986090;28;20276;-78
2022/01/25 11:15:31;;;;;;;;;;;1.10;99.90;;;;;;4979997;28;20214;-78
2022/01/25 11:17:58;;;;;;;;;;;1.40;99.90;;;;;;4978237;28;19933;-78
2022/01/25 11:20:25;;;;;;;;;;;1.40;99.90;;;;;;4978729;28;20384;-78
2022/01/25 11:22:52;;;;;;;;;;;1.30;99.90;;;;;;4985587;28;19952;-78
2022/01/25 11:25:22;;;;;;;;;;;1.50;99.90;;;;;;4980590;28;19941;-79
2022/01/25 11:27:49;;;;;;;;;;;1.60;99.90;;;;;;4979414;28;19930;-79
2022/01/25 11:30:18;;;;;;;;;;;1.70;99.90;;;;;;4981523;28;19926;-79
2022/01/25 11:32:46;;;;;;;;;;;1.70;99.90;;;;;;4980719;28;20384;-79
2022/01/25 11:35:15;;;;;;;;;;;1.50;99.90;;;;;;4983948;28;19937;-78
2022/01/25 11:37:43;;;;;;;;;;;1.40;99.90;;;;;;4981036;28;20133;-79
2022/01/25 11:40:20;;;;;;;;;;;1.50;99.90;;;;;;4979081;28;19930;-78
2022/01/25 11:42:55;;;;;;;;;;;1.50;99.90;;;;;;4978422;28;19976;-79
2022/01/25 11:45:24;;;;;;;;;;;1.40;99.90;;;;;;4978715;28;19925;-78
2022/01/25 11:47:54;;;;;;;;;;;1.40;99.90;;;;;;4985062;28;19926;-79
2022/01/25 11:50:33;;;;;;;;;;;1.40;99.90;;;;;;4971260;28;20297;-78
2022/01/25 11:53:05;;;;;;;;;;;1.40;99.90;;;;;;4983475;28;19926;-79
2022/01/25 11:55:49;;;;;;;;;;;1.50;99.90;;;;;;4976284;28;20009;-79
2022/01/25 11:58:25;;;;;;;;;;;1.70;99.90;;;;;;4986200;28;19933;-78
2022/01/25 12:00:56;;;;;;;;;;;1.60;99.90;;;;;;4982141;28;20410;-78
2022/01/25 12:03:26;;;;;;;;;;;1.70;99.90;;;;;;4993156;28;20441;-78
2022/01/25 12:06:07;;;;;;;;;;;1.50;99.90;;;;;;4981848;28;19925;-78
2022/01/25 12:11:32;;;;;;;;;;;1.70;99.90;;;;;;4979204;28;20401;-78
2022/01/25 12:14:14;;;;;;;;;;;1.80;99.90;;;;;;4977083;28;20442;-77
2022/01/25 12:16:44;;;;;;;;;;;1.60;99.90;;;;;;4969997;28;19925;-78
2022/01/25 12:19:21;;;;;;;;;;;1.70;99.90;;;;;;4974118;28;20437;-78
2022/01/25 12:21:49;;;;;;;;;;;1.70;99.90;;;;;;4988563;28;20098;-78
2022/01/25 12:24:23;;;;;;;;;;;1.60;99.90;;;;;;4982505;28;19988;-77
2022/01/25 12:26:55;;;;;;;;;;;1.70;99.90;;;;;;4984742;28;20455;-77
2022/01/25 12:29:48;;;;;;;;;;;1.60;99.90;;;;;;4975963;28;20351;-77
2022/01/25 12:32:25;;;;;;;;;;;1.60;99.90;;;;;;4972647;28;19937;-78
2022/01/25 12:35:10;;;;;;;;;;;1.60;99.90;;;;;;4974049;28;19935;-78
2022/01/25 12:37:43;;;;;;;;;;;1.50;99.90;;;;;;4983702;28;19934;-77
2022/01/25 12:40:31;;;;;;;;;;;1.40;99.90;;;;;;4980201;28;20537;-77
2022/01/25 12:42:58;;;;;;;;;;;1.40;99.90;;;;;;4970633;28;19926;-77
2022/01/25 12:45:26;;;;;;;;;;;1.40;99.90;;;;;;4977193;28;19926;-77
2022/01/25 12:47:56;;;;;;;;;;;1.30;99.90;;;;;;4970380;28;20236;-77
2022/01/25 12:50:23;;;;;;;;;;;1.40;99.90;;;;;;4975634;28;20392;-78
2022/01/25 12:52:50;;;;;;;;;;;1.50;99.90;;;;;;4987420;28;20411;-77
2022/01/25 12:55:22;;;;;;;;;;;1.50;99.90;;;;;;4979815;28;19940;-77
2022/01/25 12:57:50;;;;;;;;;;;1.50;99.90;;;;;;4979374;28;19930;-76
2022/01/25 13:00:21;;;;;;;;;;;1.40;99.90;;;;;;4989827;28;19947;-77
2022/01/25 13:02:48;;;;;;;;;;;1.30;99.90;;;;;;4985629;28;19922;-76
2022/01/25 13:05:14;;;;;;;;;;;1.30;99.90;;;;;;4979357;28;20515;-77
2022/01/25 13:07:45;;;;;;;;;;;1.30;99.90;;;;;;4975984;28;19926;-77
2022/01/25 13:10:22;;;;;;;;;;;1.40;99.90;;;;;;4980504;28;20293;-77
2022/01/25 13:12:58;;;;;;;;;;;1.50;99.90;;;;;;4947646;28;19933;-77
2022/01/25 13:18:09;;;;;;;;;;;1.70;99.90;;;;;;4977792;28;19933;-76
2022/01/25 13:20:35;;;;;;;;;;;1.60;99.90;;;;;;4962253;28;19933;-77
2022/01/25 13:23:02;;;;;;;;;;;1.60;99.90;;;;;;4957755;28;19933;-77
2022/01/25 13:25:43;;;;;;;;;;;1.60;99.90;;;;;;4961719;28;19936;-78
2022/01/25 13:28:22;;;;;;;;;;;1.50;99.90;;;;;;4971229;28;19963;-76
2022/01/25 13:31:09;;;;;;;;;;;1.40;99.90;;;;;;4968894;28;19921;-77
2022/01/25 13:33:36;;;;;;;;;;;1.40;99.90;;;;;;4979178;28;20335;-77
2022/01/25 13:36:04;;;;;;;;;;;1.40;99.90;;;;;;4957144;28;19930;-78
2022/01/25 13:38:32;;;;;;;;;;;1.40;99.90;;;;;;4966454;28;19965;-78
2022/01/25 13:41:41;;;;;;;;;;;1.40;99.90;;;;;;4979204;28;19926;-77
2022/01/25 13:46:53;;;;;;;;;;;1.30;99.90;;;;;;4962406;28;20270;-77
2022/01/25 13:49:20;;;;;;;;;;;1.30;99.90;;;;;;4960621;28;20428;-78
2022/01/25 13:51:52;;;;;;;;;;;1.30;99.90;;;;;;4965065;28;19925;-78
2022/01/25 13:54:21;;;;;;;;;;;1.30;99.90;;;;;;4969238;28;19926;-78
2022/01/25 13:56:47;;;;;;;;;;;1.20;99.90;;;;;;4962912;28;19971;-76
2022/01/25 13:59:14;;;;;;;;;;;1.10;99.90;;;;;;4960882;28;19940;-76
2022/01/25 14:01:42;;;;;;;;;;;1.20;99.90;;;;;;4965943;28;20403;-76
2022/01/25 14:04:08;;;;;;;;;;;1.20;99.90;;;;;;4962092;28;20675;-77
2022/01/25 14:06:43;;;;;;;;;;;1.20;99.90;;;;;;4971930;28;19926;-76
2022/01/25 14:09:13;;;;;;;;;;;1.20;99.90;;;;;;4968776;28;19972;-77
2022/01/25 14:25:32;;;;;;;;;;;1.30;99.90;;;;;;4962342;28;20431;-77
2022/01/25 14:28:00;;;;;;;;;;;1.30;99.90;;;;;;4959498;28;19926;-77
2022/01/25 14:30:31;;;;;;;;;;;1.30;99.90;;;;;;4960869;28;19933;-77
2022/01/25 14:33:00;;;;;;;;;;;1.30;99.90;;;;;;4973760;28;19940;-77
2022/01/25 14:35:27;;;;;;;;;;;1.30;99.90;;;;;;4965798;28;20040;-77
2022/01/25 14:38:02;;;;;;;;;;;1.30;99.90;;;;;;4968478;28;20350;-78
2022/01/25 14:40:29;;;;;;;;;;;1.30;99.90;;;;;;4959849;28;19964;-77
2022/01/25 14:42:55;;;;;;;;;;;1.30;99.90;;;;;;4966845;28;19926;-78
2022/01/25 14:45:23;;;;;;;;;;;1.30;99.90;;;;;;4961086;28;20557;-77
2022/01/25 14:47:51;;;;;;;;;;;1.20;99.90;;;;;;4967569;28;20419;-77
2022/01/25 14:50:23;;;;;;;;;;;1.20;99.90;;;;;;4963826;28;20183;-77
2022/01/25 14:53:19;;;;;;;;;;;1.30;99.90;;;;;;4956549;28;20431;-77
2022/01/25 14:55:47;;;;;;;;;;;1.30;99.90;;;;;;5037118;28;20314;-77
2022/01/25 15:00:51;;;;;;;;;;;1.20;99.90;;;;;;5046385;28;20391;-77
2022/01/25 15:03:18;;;;;;;;;;;1.10;99.90;;;;;;5046654;28;20014;-77
2022/01/25 15:05:46;;;;;;;;;;;1.00;99.90;;;;;;5054869;28;19947;-77
2022/01/25 15:08:13;;;;;;;;;;;1.10;99.90;;;;;;5053490;28;19924;-77
2022/01/25 15:10:45;;;;;;;;;;;1.20;99.90;;;;;;5050901;28;19920;-77
2022/01/25 15:13:23;;;;;;;;;;;1.20;99.90;;;;;;5059376;28;20472;-77
2022/01/25 15:15:56;;;;;;;;;;;1.10;99.90;;;;;;5040977;28;19928;-78
2022/01/25 15:18:24;;;;;;;;;;;1.10;99.90;;;;;;5055138;28;20021;-77
2022/01/25 15:20:51;;;;;;;;;;;1.10;99.90;;;;;;5056846;28;19925;-77
2022/01/25 15:23:21;;;;;;;;;;;1.00;99.90;;;;;;5048567;28;19924;-78
2022/01/25 15:25:55;;;;;;;;;;;1.10;99.90;;;;;;5052643;28;19932;-77
2022/01/25 15:28:22;;;;;;;;;;;1.00;99.90;;;;;;5047204;28;19924;-78
2022/01/25 15:30:49;;;;;;;;;;;1.00;99.90;;;;;;5046925;28;19928;-76
2022/01/25 15:33:16;;;;;;;;;;;0.90;99.90;;;;;;4974440;28;20024;-76
2022/01/25 15:35:43;;;;;;;;;;;0.90;99.90;;;;;;4969179;28;19925;-77
2022/01/25 15:38:10;;;;;;;;;;;0.90;99.90;;;;;;4968903;28;20195;-77
2022/01/25 15:40:37;;;;;;;;;;;0.80;99.90;;;;;;4961147;28;19952;-77
2022/01/25 15:43:06;;;;;;;;;;;0.90;99.90;;;;;;4957946;28;20431;-77
2022/01/25 15:45:53;;;;;;;;;;;0.80;99.90;;;;;;4964485;28;20541;-78
2022/01/25 15:48:20;;;;;;;;;;;0.80;99.90;;;;;;4963041;28;19930;-78
2022/01/25 15:50:47;;;;;;;;;;;0.80;99.90;;;;;;4962739;28;19936;-78
2022/01/25 15:53:14;;;;;;;;;;;0.80;99.90;;;;;;4956703;28;20440;-78
2022/01/25 15:55:44;;;;;;;;;;;0.80;99.90;;;;;;4959324;28;19926;-78
2022/01/25 15:58:11;;;;;;;;;;;0.90;99.90;;;;;;4955667;28;20214;-76
2022/01/25 16:00:37;;;;;;;;;;;0.80;99.90;;;;;;4959888;28;19933;-77
2022/01/25 16:03:07;;;;;;;;;;;0.90;99.90;;;;;;4957683;28;19926;-77
2022/01/25 16:05:34;;;;;;;;;;;0.90;99.90;;;;;;4966620;28;19998;-76
2022/01/25 16:08:01;;;;;;;;;;;0.80;99.90;;;;;;4963896;28;20428;-77
2022/01/25 16:10:31;;;;;;;;;;;0.90;99.90;;;;;;4964044;28;19926;-76
2022/01/25 16:12:58;;;;;;;;;;;0.90;99.90;;;;;;4965153;28;20374;-77
2022/01/25 16:15:25;;;;;;;;;;;0.90;99.90;;;;;;4967613;28;19936;-77
2022/01/25 16:17:53;;;;;;;;;;;0.90;99.90;;;;;;4974777;28;20024;-76
2022/01/25 16:20:19;;;;;;;;;;;0.80;99.90;;;;;;4972597;28;19936;-77
2022/01/25 16:22:46;;;;;;;;;;;0.80;99.90;;;;;;4972526;28;19929;-77
2022/01/25 16:25:14;;;;;;;;;;;0.80;99.90;;;;;;4967875;28;20336;-77
2022/01/25 16:27:41;;;;;;;;;;;0.70;99.90;;;;;;4961144;28;19948;-77
2022/01/25 16:30:08;;;;;;;;;;;0.70;99.90;;;;;;4967333;28;20005;-77
2022/01/25 16:32:41;;;;;;;;;;;0.70;99.90;;;;;;4976232;28;20076;-77
2022/01/25 16:35:08;;;;;;;;;;;0.70;99.90;;;;;;4980868;28;19928;-77
2022/01/25 16:37:37;;;;;;;;;;;0.70;99.90;;;;;;4981776;28;20268;-77
2022/01/25 16:40:05;;;;;;;;;;;0.80;99.90;;;;;;4972763;28;19922;-77